createdAt,value
2022-10-01T00:02:57.887Z,98254.60
2022-10-01T00:09:10.149Z,98255.80
2022-10-01T00:15:52.941Z,98256.40
2022-10-01T00:21:22.750Z,98266.20
2022-10-01T00:27:28.833Z,98267.60
2022-10-01T00:33:11.646Z,98269.20
2022-10-01T00:38:35.030Z,98262.60
2022-10-01T00:44:38.025Z,98264.00
2022-10-01T00:50:55.297Z,98275.40
2022-10-01T00:56:26.447Z,98264.20
2022-10-01T01:02:03.120Z,98267.60
2022-10-01T01:08:26.618Z,98258.40
2022-10-01T01:14:36.018Z,98253.00
2022-10-01T01:20:49.536Z,98250.40
2022-10-01T01:27:25.961Z,98248.80
2022-10-01T01:33:19.358Z,98248.00
2022-10-01T01:38:59.219Z,98249.80
2022-10-01T01:44:47.730Z,98256.80
2022-10-01T01:51:15.210Z,98248.40
2022-10-01T01:57:01.376Z,98245.00
2022-10-01T02:02:54.681Z,98244.20
2022-10-01T02:08:40.502Z,98252.00
2022-10-01T02:14:35.275Z,98257.00
2022-10-01T02:20:08.546Z,98258.60
2022-10-01T02:26:14.391Z,98267.80
2022-10-01T02:32:20.779Z,98268.80
2022-10-01T02:37:51.644Z,98277.20
2022-10-01T02:43:43.189Z,98278.60
2022-10-01T02:50:11.854Z,98262.40
2022-10-01T02:56:06.908Z,98255.40
2022-10-01T03:01:32.894Z,98259.80
2022-10-01T03:07:41.100Z,98256.00
2022-10-01T03:13:19.960Z,98258.20
2022-10-01T03:18:53.045Z,98247.60
2022-10-01T03:24:43.068Z,98241.80
2022-10-01T03:30:27.023Z,98242.80
2022-10-01T03:35:51.967Z,98236.60
2022-10-01T03:41:14.280Z,98225.20
2022-10-01T03:46:44.051Z,98225.00
2022-10-01T03:52:20.511Z,98217.20
2022-10-01T03:58:24.385Z,98219.80
2022-10-01T04:06:48.246Z,98206.80
2022-10-01T04:12:12.981Z,98205.40
2022-10-01T04:17:37.192Z,98206.60
2022-10-01T04:23:01.560Z,98194.00
2022-10-01T04:28:32.600Z,98193.60
2022-10-01T04:34:05.549Z,98185.20
2022-10-01T04:39:30.810Z,98190.00
2022-10-01T04:45:02.818Z,98203.60
2022-10-01T04:50:58.495Z,98205.80
2022-10-01T04:57:00.295Z,98205.60
2022-10-01T05:02:47.627Z,98203.20
2022-10-01T05:08:10.643Z,98200.80
2022-10-01T05:13:33.049Z,98197.60
2022-10-01T05:18:56.798Z,98201.60
2022-10-01T05:24:18.941Z,98205.60
2022-10-01T05:29:41.774Z,98197.20
2022-10-01T05:35:07.250Z,98200.00
2022-10-01T05:40:32.192Z,98192.40
2022-10-01T05:46:05.836Z,98190.80
2022-10-01T05:51:49.932Z,98196.20
2022-10-01T05:57:42.764Z,98184.00
2022-10-01T06:03:47.510Z,98189.80
2022-10-01T06:09:10.883Z,98185.80
2022-10-01T06:14:39.639Z,98186.00
2022-10-01T06:20:16.556Z,98194.60
2022-10-01T06:25:50.489Z,98191.80
2022-10-01T06:31:25.696Z,98186.80
2022-10-01T06:37:08.373Z,98180.00
2022-10-01T06:43:08.465Z,98179.20
2022-10-01T06:48:57.064Z,98179.20
2022-10-01T06:54:36.143Z,98182.20
2022-10-01T07:00:15.334Z,98187.00
2022-10-01T07:06:35.365Z,98189.00
2022-10-01T07:12:20.476Z,98183.80
2022-10-01T07:17:49.029Z,98191.20
2022-10-01T07:23:24.607Z,98182.60
2022-10-01T07:28:49.938Z,98174.80
2022-10-01T07:34:17.522Z,98160.40
2022-10-01T07:39:40.066Z,98156.00
2022-10-01T07:45:14.653Z,98164.40
2022-10-01T07:50:47.375Z,98169.40
2022-10-01T07:56:17.479Z,98170.20
2022-10-01T08:01:39.986Z,98166.20
2022-10-01T08:07:18.957Z,98158.40
2022-10-01T08:12:44.696Z,98156.20
2022-10-01T08:18:23.684Z,98152.20
2022-10-01T08:23:45.652Z,98153.20
2022-10-01T08:29:07.684Z,98151.40
2022-10-01T08:34:29.690Z,98151.40
2022-10-01T08:39:54.710Z,98143.80
2022-10-01T08:45:28.822Z,98141.00
2022-10-01T08:51:10.952Z,98143.80
2022-10-01T08:56:45.305Z,98144.00
2022-10-01T09:02:25.909Z,98143.80
2022-10-01T09:08:56.662Z,98141.20
2022-10-01T09:15:10.935Z,98145.80
2022-10-01T09:20:42.102Z,98140.20
2022-10-01T09:26:29.874Z,98123.20
2022-10-01T09:32:20.862Z,98118.20
2022-10-01T09:38:03.568Z,98116.00
2022-10-01T09:43:43.414Z,98110.60
2022-10-01T09:49:49.067Z,98107.60
2022-10-01T09:56:04.897Z,98119.80
2022-10-01T10:02:06.288Z,98113.20
2022-10-01T10:07:44.070Z,98097.00
2022-10-01T10:13:31.721Z,98092.40
2022-10-01T10:19:15.532Z,98085.80
2022-10-01T10:24:47.183Z,98075.00
2022-10-01T10:30:39.431Z,98063.20
2022-10-01T10:36:09.138Z,98052.20
2022-10-01T10:41:32.033Z,98045.00
2022-10-01T10:47:03.478Z,98031.00
2022-10-01T10:52:48.386Z,98020.80
2022-10-01T10:58:40.399Z,98008.00
2022-10-01T11:04:30.755Z,97993.60
2022-10-01T11:10:30.030Z,97978.80
2022-10-01T11:16:51.612Z,97967.80
2022-10-01T11:23:20.955Z,97949.00
2022-10-01T11:29:33.206Z,97942.80
2022-10-01T11:35:18.789Z,97937.20
2022-10-01T11:41:23.572Z,97921.40
2022-10-01T11:47:34.927Z,97904.00
2022-10-01T11:53:55.749Z,97894.40
2022-10-01T11:59:34.697Z,97895.20
2022-10-01T12:05:35.036Z,97899.60
2022-10-01T12:11:40.349Z,97901.80
2022-10-01T12:17:32.522Z,97892.20
2022-10-01T12:23:23.146Z,97883.20
2022-10-01T12:30:01.306Z,97877.60
2022-10-01T12:36:41.127Z,97873.80
2022-10-01T12:43:53.441Z,97867.60
2022-10-01T12:49:49.491Z,97870.80
2022-10-01T12:56:10.760Z,97864.20
2022-10-01T13:02:43.672Z,97849.60
2022-10-01T13:09:02.536Z,97844.40
2022-10-01T13:14:46.249Z,97845.80
2022-10-01T13:21:17.440Z,97837.40
2022-10-01T13:26:56.102Z,97838.20
2022-10-01T13:32:33.402Z,97835.60
2022-10-01T13:38:01.981Z,97835.80
2022-10-01T13:43:39.100Z,97835.20
2022-10-01T13:49:22.782Z,97826.60
2022-10-01T13:55:28.648Z,97822.40
2022-10-01T14:00:57.442Z,97816.20
2022-10-01T14:07:10.595Z,97810.40
2022-10-01T14:13:04.807Z,97802.60
2022-10-01T14:18:37.094Z,97802.80
2022-10-01T14:24:29.471Z,97801.40
2022-10-01T14:30:38.254Z,97788.40
2022-10-01T14:36:34.716Z,97787.80
2022-10-01T14:42:22.296Z,97773.40
2022-10-01T14:47:59.870Z,97766.00
2022-10-01T14:53:30.072Z,97759.80
2022-10-01T14:59:08.944Z,97753.60
2022-10-01T15:05:40.983Z,97747.20
2022-10-01T15:11:35.074Z,97745.60
2022-10-01T15:17:21.522Z,97739.00
2022-10-01T15:23:03.847Z,97740.00
2022-10-01T15:28:55.690Z,97742.20
2022-10-01T15:34:33.225Z,97734.40
2022-10-01T15:40:00.943Z,97731.00
2022-10-01T15:45:31.529Z,97738.40
2022-10-01T15:51:17.162Z,97737.40
2022-10-01T15:56:59.412Z,97740.00
2022-10-01T16:02:52.099Z,97734.80
2022-10-01T16:09:13.745Z,97726.80
2022-10-01T16:15:04.400Z,97728.40
2022-10-01T16:21:26.898Z,97711.40
2022-10-01T16:27:05.425Z,97698.80
2022-10-01T16:33:30.643Z,97701.80
2022-10-01T16:39:25.440Z,97707.60
2022-10-01T16:45:29.938Z,97711.20
2022-10-01T16:51:04.430Z,97711.60
2022-10-01T16:57:07.031Z,97707.60
2022-10-01T17:02:37.629Z,97700.40
2022-10-01T17:08:27.092Z,97691.80
2022-10-01T17:14:07.605Z,97694.00
2022-10-01T17:20:12.877Z,97679.60
2022-10-01T17:25:47.656Z,97675.40
2022-10-01T17:31:18.039Z,97677.00
2022-10-01T17:37:06.491Z,97675.00
2022-10-01T17:42:50.956Z,97676.20
2022-10-01T17:48:50.284Z,97674.00
2022-10-01T17:54:52.606Z,97681.40
2022-10-01T18:00:23.750Z,97696.60
2022-10-01T18:06:12.921Z,97690.80
2022-10-01T18:11:40.998Z,97738.00
2022-10-01T18:17:04.434Z,97741.80
2022-10-01T18:22:27.532Z,97751.20
2022-10-01T18:27:52.523Z,97754.60
2022-10-01T18:33:43.306Z,97750.00
2022-10-01T18:39:40.853Z,97764.20
2022-10-01T18:45:13.381Z,97768.40
2022-10-01T18:51:07.763Z,97761.60
2022-10-01T18:56:39.216Z,97770.20
2022-10-01T19:02:33.768Z,97764.20
2022-10-01T19:08:54.946Z,97777.20
2022-10-01T19:15:03.674Z,97784.40
2022-10-01T19:21:37.740Z,97793.60
2022-10-01T19:28:28.161Z,97794.60
2022-10-01T19:34:17.601Z,97799.00
2022-10-01T19:40:07.239Z,97799.20
2022-10-01T19:46:25.625Z,97807.40
2022-10-01T19:52:19.819Z,97801.80
2022-10-01T19:58:22.070Z,97809.80
2022-10-01T20:04:26.809Z,97808.60
2022-10-01T20:10:37.353Z,97814.00
2022-10-01T20:16:27.411Z,97813.20
2022-10-01T20:22:35.750Z,97821.80
2022-10-01T20:28:53.410Z,97825.60
2022-10-01T20:34:44.156Z,97823.00
2022-10-01T20:41:00.823Z,97830.20
2022-10-01T20:47:12.138Z,97825.20
2022-10-01T20:53:58.315Z,97835.40
2022-10-01T20:59:51.553Z,97831.80
2022-10-01T21:06:41.407Z,97840.20
2022-10-01T21:13:02.834Z,97844.80
2022-10-01T21:19:26.936Z,97850.80
2022-10-01T21:25:57.966Z,97853.60
2022-10-01T21:32:05.154Z,97856.20
2022-10-01T21:38:49.863Z,97855.80
2022-10-01T21:45:02.741Z,97860.20
2022-10-01T21:51:28.864Z,97859.40
2022-10-01T21:58:02.465Z,97864.20
2022-10-01T22:04:32.930Z,97867.00
2022-10-01T22:11:27.497Z,97871.20
2022-10-01T22:17:49.643Z,97863.40
2022-10-01T22:23:50.312Z,97872.80
2022-10-01T22:29:44.657Z,97876.20
2022-10-01T22:35:24.797Z,97878.80
2022-10-01T22:41:19.152Z,97882.20
2022-10-01T22:48:00.244Z,97881.60
2022-10-01T22:54:00.152Z,97885.20
2022-10-01T23:00:04.398Z,97882.80
2022-10-01T23:06:11.826Z,97890.20
2022-10-01T23:12:32.525Z,97901.20
2022-10-01T23:19:18.661Z,97908.20
2022-10-01T23:26:13.316Z,97915.40
2022-10-01T23:33:33.091Z,97915.80
2022-10-01T23:40:14.528Z,97921.40
2022-10-01T23:46:41.255Z,97932.20
2022-10-01T23:53:11.076Z,97929.00
2022-10-01T23:59:16.939Z,97932.60
